sensor_id;sensor_type;location;lat;lon;timestamp;noise_LAeq;noise_LA_min;noise_LA_max;noise_LA01;noise_LA95
47109;Laerm;32856;51.422;6.794;2024-02-04T00:02:14;59.06;43.77;76.13;;
47109;Laerm;32856;51.422;6.794;2024-02-04T00:04:42;56.57;43.24;73.96;;
47109;Laerm;32856;51.422;6.794;2024-02-04T00:07:09;54.89;44.11;71.78;;
47109;Laerm;32856;51.422;6.794;2024-02-04T00:09:37;57.13;44.58;75.43;;
47109;Laerm;32856;51.422;6.794;2024-02-04T00:12:04;54.33;45.30;71.21;;
47109;Laerm;32856;51.422;6.794;2024-02-04T00:14:32;58.39;44.15;74.70;;
47109;Laerm;32856;51.422;6.794;2024-02-04T00:17:01;57.39;44.47;71.21;;
47109;Laerm;32856;51.422;6.794;2024-02-04T00:19:28;60.58;45.42;76.04;;
47109;Laerm;32856;51.422;6.794;2024-02-04T00:21:55;54.72;43.72;74.21;;
47109;Laerm;32856;51.422;6.794;2024-02-04T00:24:23;48.72;43.86;58.52;;
47109;Laerm;32856;51.422;6.794;2024-02-04T00:26:50;61.14;46.07;77.34;;
47109;Laerm;32856;51.422;6.794;2024-02-04T00:29:18;57.22;45.01;75.91;;
47109;Laerm;32856;51.422;6.794;2024-02-04T00:31:45;57.73;44.03;77.54;;
47109;Laerm;32856;51.422;6.794;2024-02-04T00:34:13;46.55;42.53;56.55;;
47109;Laerm;32856;51.422;6.794;2024-02-04T00:36:41;49.95;44.65;58.33;;
47109;Laerm;32856;51.422;6.794;2024-02-04T00:39:08;62.07;45.86;78.40;;
47109;Laerm;32856;51.422;6.794;2024-02-04T00:41:36;60.19;42.29;78.16;;
47109;Laerm;32856;51.422;6.794;2024-02-04T00:44:03;48.67;45.20;58.03;;
47109;Laerm;32856;51.422;6.794;2024-02-04T00:46:31;61.68;45.36;77.37;;
47109;Laerm;32856;51.422;6.794;2024-02-04T00:48:58;56.78;42.82;73.80;;
47109;Laerm;32856;51.422;6.794;2024-02-04T00:51:26;46.43;42.29;56.26;;
47109;Laerm;32856;51.422;6.794;2024-02-04T00:53:53;59.61;43.04;77.99;;
47109;Laerm;32856;51.422;6.794;2024-02-04T00:56:20;52.70;44.51;66.56;;
47109;Laerm;32856;51.422;6.794;2024-02-04T00:58:48;60.97;42.65;77.89;;
47109;Laerm;32856;51.422;6.794;2024-02-04T01:01:15;61.31;42.98;77.36;;
47109;Laerm;32856;51.422;6.794;2024-02-04T01:03:42;48.18;43.39;67.52;;
47109;Laerm;32856;51.422;6.794;2024-02-04T01:06:10;47.30;43.29;56.51;;
47109;Laerm;32856;51.422;6.794;2024-02-04T01:08:39;47.50;42.82;57.67;;
47109;Laerm;32856;51.422;6.794;2024-02-04T01:11:06;59.84;42.88;81.52;;
47109;Laerm;32856;51.422;6.794;2024-02-04T01:13:33;46.51;42.47;57.99;;
47109;Laerm;32856;51.422;6.794;2024-02-04T01:16:01;57.56;43.54;73.43;;
47109;Laerm;32856;51.422;6.794;2024-02-04T01:18:28;57.04;44.58;73.82;;
47109;Laerm;32856;51.422;6.794;2024-02-04T01:20:57;57.78;46.76;75.78;;
47109;Laerm;32856;51.422;6.794;2024-02-04T01:23:26;53.40;44.69;70.45;;
47109;Laerm;32856;51.422;6.794;2024-02-04T01:25:55;53.82;45.39;72.59;;
47109;Laerm;32856;51.422;6.794;2024-02-04T01:28:22;55.09;43.99;76.23;;
47109;Laerm;32856;51.422;6.794;2024-02-04T01:30:50;48.78;43.29;58.40;;
47109;Laerm;32856;51.422;6.794;2024-02-04T01:33:17;62.38;43.29;78.10;;
47109;Laerm;32856;51.422;6.794;2024-02-04T01:35:45;56.24;44.69;75.26;;
47109;Laerm;32856;51.422;6.794;2024-02-04T01:38:12;62.55;44.19;79.25;;
47109;Laerm;32856;51.422;6.794;2024-02-04T01:40:40;61.06;43.72;78.05;;
47109;Laerm;32856;51.422;6.794;2024-02-04T01:43:08;59.82;43.63;76.68;;
47109;Laerm;32856;51.422;6.794;2024-02-04T01:45:36;60.58;44.69;75.78;;
47109;Laerm;32856;51.422;6.794;2024-02-04T01:48:03;60.97;43.54;78.68;;
47109;Laerm;32856;51.422;6.794;2024-02-04T01:50:31;50.57;45.07;58.75;;
47109;Laerm;32856;51.422;6.794;2024-02-04T01:52:59;61.48;44.73;80.80;;
47109;Laerm;32856;51.422;6.794;2024-02-04T01:55:26;47.64;43.24;57.85;;
47109;Laerm;32856;51.422;6.794;2024-02-04T01:57:53;61.86;43.44;78.15;;
47109;Laerm;32856;51.422;6.794;2024-02-04T02:00:22;48.50;42.65;65.89;;
47109;Laerm;32856;51.422;6.794;2024-02-04T02:02:50;47.42;43.72;58.99;;
47109;Laerm;32856;51.422;6.794;2024-02-04T02:05:19;58.15;43.09;73.44;;
47109;Laerm;32856;51.422;6.794;2024-02-04T02:07:47;58.63;42.82;75.47;;
47109;Laerm;32856;51.422;6.794;2024-02-04T02:10:17;57.17;42.71;73.64;;
47109;Laerm;32856;51.422;6.794;2024-02-04T02:12:47;46.79;42.47;58.44;;
47109;Laerm;32856;51.422;6.794;2024-02-04T02:15:17;49.01;42.53;55.97;;
47109;Laerm;32856;51.422;6.794;2024-02-04T02:17:47;46.68;42.65;57.36;;
47109;Laerm;32856;51.422;6.794;2024-02-04T02:20:19;54.86;41.68;68.44;;
47109;Laerm;32856;51.422;6.794;2024-02-04T02:22:48;60.12;42.29;77.98;;
47109;Laerm;32856;51.422;6.794;2024-02-04T02:25:17;63.34;44.58;79.84;;
47109;Laerm;32856;51.422;6.794;2024-02-04T02:27:47;48.03;41.82;66.80;;
47109;Laerm;32856;51.422;6.794;2024-02-04T02:30:14;45.11;39.58;57.79;;
47109;Laerm;32856;51.422;6.794;2024-02-04T02:32:43;58.37;40.80;77.07;;
47109;Laerm;32856;51.422;6.794;2024-02-04T02:35:11;55.20;41.06;72.45;;
47109;Laerm;32856;51.422;6.794;2024-02-04T02:37:40;45.94;41.53;54.93;;
47109;Laerm;32856;51.422;6.794;2024-02-04T02:40:09;54.20;40.80;73.76;;
47109;Laerm;32856;51.422;6.794;2024-02-04T02:42:41;61.17;41.61;79.32;;
47109;Laerm;32856;51.422;6.794;2024-02-04T02:45:10;55.96;41.38;75.37;;
47109;Laerm;32856;51.422;6.794;2024-02-04T02:47:38;48.88;41.30;61.90;;
47109;Laerm;32856;51.422;6.794;2024-02-04T02:50:07;45.15;40.23;67.93;;
47109;Laerm;32856;51.422;6.794;2024-02-04T02:52:35;55.50;38.52;75.71;;
47109;Laerm;32856;51.422;6.794;2024-02-04T02:55:02;45.48;41.61;57.27;;
47109;Laerm;32856;51.422;6.794;2024-02-04T02:57:30;61.37;40.33;79.56;;
47109;Laerm;32856;51.422;6.794;2024-02-04T02:59:59;45.08;41.61;56.85;;
47109;Laerm;32856;51.422;6.794;2024-02-04T03:02:26;55.81;40.33;75.78;;
47109;Laerm;32856;51.422;6.794;2024-02-04T03:04:53;56.72;40.53;75.90;;
47109;Laerm;32856;51.422;6.794;2024-02-04T03:07:21;53.87;41.96;72.88;;
47109;Laerm;32856;51.422;6.794;2024-02-04T03:09:48;45.95;41.46;57.20;;
47109;Laerm;32856;51.422;6.794;2024-02-04T03:12:15;56.17;41.82;76.82;;
47109;Laerm;32856;51.422;6.794;2024-02-04T03:14:43;45.33;41.53;57.31;;
47109;Laerm;32856;51.422;6.794;2024-02-04T03:17:11;45.48;41.14;55.71;;
47109;Laerm;32856;51.422;6.794;2024-02-04T03:19:39;57.93;41.26;77.66;;
47109;Laerm;32856;51.422;6.794;2024-02-04T03:22:06;48.59;42.22;67.05;;
47109;Laerm;32856;51.422;6.794;2024-02-04T03:24:34;55.36;42.88;72.45;;
47109;Laerm;32856;51.422;6.794;2024-02-04T03:27:01;56.73;42.29;75.35;;
47109;Laerm;32856;51.422;6.794;2024-02-04T03:29:29;59.00;41.14;78.06;;
47109;Laerm;32856;51.422;6.794;2024-02-04T03:31:56;56.98;41.96;73.42;;
47109;Laerm;32856;51.422;6.794;2024-02-04T03:34:25;46.50;42.09;54.67;;
47109;Laerm;32856;51.422;6.794;2024-02-04T03:36:52;45.20;41.55;56.78;;
47109;Laerm;32856;51.422;6.794;2024-02-04T03:39:21;48.81;42.47;59.65;;
47109;Laerm;32856;51.422;6.794;2024-02-04T03:41:48;45.97;41.06;60.25;;
47109;Laerm;32856;51.422;6.794;2024-02-04T03:44:15;47.85;42.58;62.41;;
47109;Laerm;32856;51.422;6.794;2024-02-04T03:46:43;47.26;41.53;62.58;;
47109;Laerm;32856;51.422;6.794;2024-02-04T03:49:10;53.36;40.33;71.42;;
47109;Laerm;32856;51.422;6.794;2024-02-04T03:51:39;47.41;42.35;61.18;;
47109;Laerm;32856;51.422;6.794;2024-02-04T03:54:06;57.00;43.37;74.30;;
47109;Laerm;32856;51.422;6.794;2024-02-04T03:56:33;55.81;42.41;75.21;;
47109;Laerm;32856;51.422;6.794;2024-02-04T03:59:03;53.86;41.75;72.42;;
47109;Laerm;32856;51.422;6.794;2024-02-04T04:01:32;55.17;42.93;67.02;;
47109;Laerm;32856;51.422;6.794;2024-02-04T04:04:00;47.74;42.59;61.34;;
47109;Laerm;32856;51.422;6.794;2024-02-04T04:06:27;51.55;42.98;67.58;;
47109;Laerm;32856;51.422;6.794;2024-02-04T04:08:56;48.57;42.90;60.55;;
47109;Laerm;32856;51.422;6.794;2024-02-04T04:11:25;49.48;44.07;61.98;;
47109;Laerm;32856;51.422;6.794;2024-02-04T04:13:52;55.06;42.65;72.38;;
47109;Laerm;32856;51.422;6.794;2024-02-04T04:16:20;49.29;42.82;65.54;;
47109;Laerm;32856;51.422;6.794;2024-02-04T04:18:47;49.29;43.34;62.49;;
47109;Laerm;32856;51.422;6.794;2024-02-04T04:21:15;54.47;43.54;72.38;;
47109;Laerm;32856;51.422;6.794;2024-02-04T04:23:42;48.86;43.29;62.54;;
47109;Laerm;32856;51.422;6.794;2024-02-04T04:26:11;48.48;42.76;63.13;;
47109;Laerm;32856;51.422;6.794;2024-02-04T04:28:38;49.07;42.82;65.74;;
47109;Laerm;32856;51.422;6.794;2024-02-04T04:31:06;48.45;43.29;61.28;;
47109;Laerm;32856;51.422;6.794;2024-02-04T04:33:35;49.37;43.94;61.76;;
47109;Laerm;32856;51.422;6.794;2024-02-04T04:36:03;50.99;42.98;65.91;;
47109;Laerm;32856;51.422;6.794;2024-02-04T04:38:30;48.38;41.89;62.40;;
47109;Laerm;32856;51.422;6.794;2024-02-04T04:40:57;50.73;43.81;62.51;;
47109;Laerm;32856;51.422;6.794;2024-02-04T04:43:26;53.82;42.58;69.50;;
47109;Laerm;32856;51.422;6.794;2024-02-04T04:45:54;49.69;42.41;61.90;;
47109;Laerm;32856;51.422;6.794;2024-02-04T04:48:22;54.22;43.39;72.72;;
47109;Laerm;32856;51.422;6.794;2024-02-04T04:50:49;56.37;44.31;75.66;;
47109;Laerm;32856;51.422;6.794;2024-02-04T04:53:17;52.13;42.22;69.47;;
47109;Laerm;32856;51.422;6.794;2024-02-04T04:55:44;54.49;42.88;80.56;;
47109;Laerm;32856;51.422;6.794;2024-02-04T04:58:11;54.82;42.93;74.76;;
47109;Laerm;32856;51.422;6.794;2024-02-04T05:00:40;48.08;42.71;62.92;;
47109;Laerm;32856;51.422;6.794;2024-02-04T05:03:08;56.55;41.96;71.85;;
47109;Laerm;32856;51.422;6.794;2024-02-04T05:05:35;52.48;41.82;67.66;;
47109;Laerm;32856;51.422;6.794;2024-02-04T05:08:02;49.94;41.75;65.19;;
47109;Laerm;32856;51.422;6.794;2024-02-04T05:10:30;55.37;42.65;73.90;;
47109;Laerm;32856;51.422;6.794;2024-02-04T05:12:57;55.14;42.22;72.65;;
47109;Laerm;32856;51.422;6.794;2024-02-04T05:15:25;57.91;42.65;74.86;;
47109;Laerm;32856;51.422;6.794;2024-02-04T05:17:54;58.22;43.63;75.40;;
47109;Laerm;32856;51.422;6.794;2024-02-04T05:20:21;54.41;42.41;70.43;;
47109;Laerm;32856;51.422;6.794;2024-02-04T05:22:49;48.26;42.03;60.60;;
47109;Laerm;32856;51.422;6.794;2024-02-04T05:25:16;54.21;42.82;73.12;;
47109;Laerm;32856;51.422;6.794;2024-02-04T05:27:44;61.06;43.19;79.35;;
47109;Laerm;32856;51.422;6.794;2024-02-04T05:30:12;48.74;41.61;65.85;;
47109;Laerm;32856;51.422;6.794;2024-02-04T05:32:39;55.39;41.61;72.79;;
47109;Laerm;32856;51.422;6.794;2024-02-04T05:35:08;56.33;43.86;74.18;;
47109;Laerm;32856;51.422;6.794;2024-02-04T05:37:35;59.38;42.76;76.28;;
47109;Laerm;32856;51.422;6.794;2024-02-04T05:40:03;51.38;42.53;68.80;;
47109;Laerm;32856;51.422;6.794;2024-02-04T05:42:31;55.01;43.94;74.39;;
47109;Laerm;32856;51.422;6.794;2024-02-04T05:44:59;48.16;43.24;57.12;;
47109;Laerm;32856;51.422;6.794;2024-02-04T05:47:26;56.89;44.35;76.27;;
47109;Laerm;32856;51.422;6.794;2024-02-04T05:49:54;50.77;44.23;62.16;;
47109;Laerm;32856;51.422;6.794;2024-02-04T05:52:22;49.29;44.39;60.16;;
47109;Laerm;32856;51.422;6.794;2024-02-04T05:54:50;48.43;43.19;59.69;;
47109;Laerm;32856;51.422;6.794;2024-02-04T05:57:17;55.84;43.14;74.03;;
47109;Laerm;32856;51.422;6.794;2024-02-04T05:59:46;55.30;43.81;74.56;;
47109;Laerm;32856;51.422;6.794;2024-02-04T06:02:14;51.74;40.62;68.13;;
47109;Laerm;32856;51.422;6.794;2024-02-04T06:04:41;50.51;41.55;68.13;;
47109;Laerm;32856;51.422;6.794;2024-02-04T06:07:09;49.18;44.19;62.18;;
47109;Laerm;32856;51.422;6.794;2024-02-04T06:09:38;55.34;43.14;72.90;;
47109;Laerm;32856;51.422;6.794;2024-02-04T06:12:05;49.75;43.68;60.42;;
47109;Laerm;32856;51.422;6.794;2024-02-04T06:14:33;53.84;43.34;70.13;;
47109;Laerm;32856;51.422;6.794;2024-02-04T06:17:00;54.03;44.27;71.23;;
47109;Laerm;32856;51.422;6.794;2024-02-04T06:19:28;54.50;42.93;71.89;;
47109;Laerm;32856;51.422;6.794;2024-02-04T06:21:55;58.56;44.73;75.15;;
47109;Laerm;32856;51.422;6.794;2024-02-04T06:24:22;58.29;43.99;73.32;;
47109;Laerm;32856;51.422;6.794;2024-02-04T06:26:51;57.94;46.55;73.91;;
47109;Laerm;32856;51.422;6.794;2024-02-04T06:29:19;54.84;43.86;70.24;;
47109;Laerm;32856;51.422;6.794;2024-02-04T06:31:46;50.25;43.34;65.57;;
47109;Laerm;32856;51.422;6.794;2024-02-04T06:34:14;56.98;43.34;75.37;;
47109;Laerm;32856;51.422;6.794;2024-02-04T06:36:42;64.51;43.09;84.79;;
47109;Laerm;32856;51.422;6.794;2024-02-04T06:39:09;58.37;42.88;73.30;;
47109;Laerm;32856;51.422;6.794;2024-02-04T06:41:37;59.25;44.15;75.56;;
47109;Laerm;32856;51.422;6.794;2024-02-04T06:44:06;52.33;43.39;66.66;;
47109;Laerm;32856;51.422;6.794;2024-02-04T06:46:33;59.99;43.90;76.77;;
47109;Laerm;32856;51.422;6.794;2024-02-04T06:49:01;57.08;45.51;73.79;;
47109;Laerm;32856;51.422;6.794;2024-02-04T06:51:28;49.13;43.14;62.36;;
47109;Laerm;32856;51.422;6.794;2024-02-04T06:53:56;53.04;43.14;68.38;;
47109;Laerm;32856;51.422;6.794;2024-02-04T06:56:23;55.44;44.39;74.51;;
47109;Laerm;32856;51.422;6.794;2024-02-04T06:58:51;56.98;44.58;74.84;;
47109;Laerm;32856;51.422;6.794;2024-02-04T07:01:19;59.04;44.31;73.29;;
47109;Laerm;32856;51.422;6.794;2024-02-04T07:03:47;52.15;44.51;64.17;;
47109;Laerm;32856;51.422;6.794;2024-02-04T07:06:16;60.22;45.48;76.44;;
47109;Laerm;32856;51.422;6.794;2024-02-04T07:08:43;63.78;45.01;79.34;;
47109;Laerm;32856;51.422;6.794;2024-02-04T07:11:10;55.86;45.51;72.64;;
47109;Laerm;32856;51.422;6.794;2024-02-04T07:13:38;59.78;44.27;75.51;;
47109;Laerm;32856;51.422;6.794;2024-02-04T07:16:05;54.68;45.11;69.18;;
47109;Laerm;32856;51.422;6.794;2024-02-04T07:18:34;59.42;44.76;74.56;;
47109;Laerm;32856;51.422;6.794;2024-02-04T07:21:02;60.28;45.48;75.02;;
47109;Laerm;32856;51.422;6.794;2024-02-04T07:23:29;63.65;45.20;86.86;;
47109;Laerm;32856;51.422;6.794;2024-02-04T07:25:56;56.87;45.45;76.96;;
47109;Laerm;32856;51.422;6.794;2024-02-04T07:28:24;61.30;43.72;80.67;;
47109;Laerm;32856;51.422;6.794;2024-02-04T07:30:51;58.03;44.62;77.72;;
47109;Laerm;32856;51.422;6.794;2024-02-04T07:33:19;64.19;45.36;83.98;;
47109;Laerm;32856;51.422;6.794;2024-02-04T07:35:47;61.25;44.54;77.42;;
47109;Laerm;32856;51.422;6.794;2024-02-04T07:38:16;64.86;43.39;85.25;;
47109;Laerm;32856;51.422;6.794;2024-02-04T07:40:43;62.06;43.68;77.80;;
47109;Laerm;32856;51.422;6.794;2024-02-04T07:43:11;62.03;45.14;78.32;;
47109;Laerm;32856;51.422;6.794;2024-02-04T07:45:38;62.04;46.78;76.37;;
47109;Laerm;32856;51.422;6.794;2024-02-04T07:48:06;58.49;45.86;75.22;;
47109;Laerm;32856;51.422;6.794;2024-02-04T07:50:35;63.29;44.54;79.67;;
47109;Laerm;32856;51.422;6.794;2024-02-04T07:53:04;65.41;47.06;77.03;;
47109;Laerm;32856;51.422;6.794;2024-02-04T07:55:31;61.70;46.95;77.51;;
47109;Laerm;32856;51.422;6.794;2024-02-04T08:00:29;59.48;48.25;76.00;;
47109;Laerm;32856;51.422;6.794;2024-02-04T08:02:56;61.37;49.06;82.47;;
47109;Laerm;32856;51.422;6.794;2024-02-04T08:05:24;59.38;48.32;74.45;;
47109;Laerm;32856;51.422;6.794;2024-02-04T08:07:51;64.59;46.40;79.69;;
47109;Laerm;32856;51.422;6.794;2024-02-04T08:10:20;65.82;50.73;80.95;;
47109;Laerm;32856;51.422;6.794;2024-02-04T08:12:48;60.96;51.74;75.94;;
47109;Laerm;32856;51.422;6.794;2024-02-04T08:15:17;61.90;50.47;76.84;;
47109;Laerm;32856;51.422;6.794;2024-02-04T08:17:44;63.10;48.13;77.61;;
47109;Laerm;32856;51.422;6.794;2024-02-04T08:20:12;63.30;47.67;80.38;;
47109;Laerm;32856;51.422;6.794;2024-02-04T08:22:39;63.47;47.88;79.38;;
47109;Laerm;32856;51.422;6.794;2024-02-04T08:25:07;66.49;48.63;79.83;;
47109;Laerm;32856;51.422;6.794;2024-02-04T08:27:38;62.33;48.46;79.12;;
47109;Laerm;32856;51.422;6.794;2024-02-04T08:30:06;64.55;48.91;78.18;;
47109;Laerm;32856;51.422;6.794;2024-02-04T08:32:33;64.01;48.16;79.87;;
47109;Laerm;32856;51.422;6.794;2024-02-04T08:35:00;58.60;48.83;74.73;;
47109;Laerm;32856;51.422;6.794;2024-02-04T08:37:28;67.43;48.44;78.53;;
47109;Laerm;32856;51.422;6.794;2024-02-04T08:39:55;65.63;50.85;83.20;;
47109;Laerm;32856;51.422;6.794;2024-02-04T08:42:23;63.97;49.98;78.85;;
47109;Laerm;32856;51.422;6.794;2024-02-04T08:44:51;63.10;48.67;79.25;;
47109;Laerm;32856;51.422;6.794;2024-02-04T08:47:19;61.89;48.63;76.71;;
47109;Laerm;32856;51.422;6.794;2024-02-04T08:49:46;65.15;48.91;78.49;;
47109;Laerm;32856;51.422;6.794;2024-02-04T08:52:14;68.21;47.61;83.84;;
47109;Laerm;32856;51.422;6.794;2024-02-04T08:54:41;64.42;46.33;77.71;;
47109;Laerm;32856;51.422;6.794;2024-02-04T08:57:08;65.24;49.00;77.60;;
47109;Laerm;32856;51.422;6.794;2024-02-04T08:59:36;64.92;49.27;76.22;;
47109;Laerm;32856;51.422;6.794;2024-02-04T09:02:05;65.99;49.60;79.68;;
47109;Laerm;32856;51.422;6.794;2024-02-04T09:04:35;63.65;48.67;79.71;;
47109;Laerm;32856;51.422;6.794;2024-02-04T09:07:06;66.67;49.18;82.19;;
47109;Laerm;32856;51.422;6.794;2024-02-04T09:09:34;65.41;48.10;80.06;;
47109;Laerm;32856;51.422;6.794;2024-02-04T09:12:01;64.19;49.14;76.30;;
47109;Laerm;32856;51.422;6.794;2024-02-04T09:14:29;61.70;47.32;74.87;;
47109;Laerm;32856;51.422;6.794;2024-02-04T09:16:56;64.00;48.13;77.20;;
47109;Laerm;32856;51.422;6.794;2024-02-04T09:19:25;60.52;48.42;75.77;;
47109;Laerm;32856;51.422;6.794;2024-02-04T09:21:53;65.79;47.96;78.74;;
47109;Laerm;32856;51.422;6.794;2024-02-04T09:24:20;65.43;48.18;79.53;;
47109;Laerm;32856;51.422;6.794;2024-02-04T09:26:47;65.61;49.62;77.69;;
47109;Laerm;32856;51.422;6.794;2024-02-04T09:29:15;65.71;49.82;79.01;;
47109;Laerm;32856;51.422;6.794;2024-02-04T09:31:42;65.12;48.28;79.29;;
47109;Laerm;32856;51.422;6.794;2024-02-04T09:34:09;64.09;48.10;77.96;;
47109;Laerm;32856;51.422;6.794;2024-02-04T09:36:39;63.15;50.02;77.41;;
47109;Laerm;32856;51.422;6.794;2024-02-04T09:39:06;65.19;48.74;77.76;;
47109;Laerm;32856;51.422;6.794;2024-02-04T09:41:33;62.82;49.56;77.31;;
47109;Laerm;32856;51.422;6.794;2024-02-04T09:44:01;64.51;49.12;78.74;;
47109;Laerm;32856;51.422;6.794;2024-02-04T09:46:29;65.63;49.59;79.24;;
47109;Laerm;32856;51.422;6.794;2024-02-04T09:48:56;65.46;49.15;77.11;;
47109;Laerm;32856;51.422;6.794;2024-02-04T09:51:25;67.52;50.22;79.01;;
47109;Laerm;32856;51.422;6.794;2024-02-04T09:53:54;67.33;49.57;79.66;;
47109;Laerm;32856;51.422;6.794;2024-02-04T09:56:26;66.02;50.88;79.61;;
47109;Laerm;32856;51.422;6.794;2024-02-04T09:58:54;67.65;49.95;79.94;;
47109;Laerm;32856;51.422;6.794;2024-02-04T10:01:22;66.65;49.20;79.71;;
47109;Laerm;32856;51.422;6.794;2024-02-04T10:03:50;66.91;50.43;83.15;;
47109;Laerm;32856;51.422;6.794;2024-02-04T10:06:18;65.74;50.44;79.75;;
47109;Laerm;32856;51.422;6.794;2024-02-04T10:08:45;67.89;50.21;80.26;;
47109;Laerm;32856;51.422;6.794;2024-02-04T10:11:15;65.82;50.00;78.76;;
47109;Laerm;32856;51.422;6.794;2024-02-04T10:13:46;65.85;49.20;78.25;;
47109;Laerm;32856;51.422;6.794;2024-02-04T10:16:13;63.45;50.00;79.57;;
47109;Laerm;32856;51.422;6.794;2024-02-04T10:18:41;63.75;51.80;77.15;;
47109;Laerm;32856;51.422;6.794;2024-02-04T10:21:16;66.41;50.98;77.77;;
47109;Laerm;32856;51.422;6.794;2024-02-04T10:23:44;66.44;50.60;77.84;;
47109;Laerm;32856;51.422;6.794;2024-02-04T10:26:11;66.13;50.30;79.12;;
47109;Laerm;32856;51.422;6.794;2024-02-04T10:28:40;65.78;51.39;78.27;;
47109;Laerm;32856;51.422;6.794;2024-02-04T10:31:08;59.44;49.60;74.07;;
47109;Laerm;32856;51.422;6.794;2024-02-04T10:33:35;65.10;50.58;80.93;;
47109;Laerm;32856;51.422;6.794;2024-02-04T10:36:03;64.00;51.09;76.78;;
47109;Laerm;32856;51.422;6.794;2024-02-04T10:38:31;65.40;50.20;78.42;;
47109;Laerm;32856;51.422;6.794;2024-02-04T10:40:59;64.20;50.23;75.60;;
47109;Laerm;32856;51.422;6.794;2024-02-04T10:43:27;63.64;50.51;77.58;;
47109;Laerm;32856;51.422;6.794;2024-02-04T10:46:00;63.12;50.17;75.59;;
47109;Laerm;32856;51.422;6.794;2024-02-04T10:48:28;66.53;50.23;79.06;;
47109;Laerm;32856;51.422;6.794;2024-02-04T10:50:56;66.17;50.77;79.14;;
47109;Laerm;32856;51.422;6.794;2024-02-04T10:53:26;66.13;50.44;77.75;;
47109;Laerm;32856;51.422;6.794;2024-02-04T10:55:53;66.66;51.56;76.43;;
47109;Laerm;32856;51.422;6.794;2024-02-04T10:58:25;65.70;49.14;78.32;;
47109;Laerm;32856;51.422;6.794;2024-02-04T11:00:53;64.56;50.56;77.90;;
47109;Laerm;32856;51.422;6.794;2024-02-04T11:03:22;62.79;49.39;76.74;;
47109;Laerm;32856;51.422;6.794;2024-02-04T11:05:54;66.60;50.30;78.11;;
47109;Laerm;32856;51.422;6.794;2024-02-04T11:08:21;66.76;50.29;79.06;;
47109;Laerm;32856;51.422;6.794;2024-02-04T11:10:49;66.75;49.93;78.00;;
47109;Laerm;32856;51.422;6.794;2024-02-04T11:13:19;65.39;49.84;78.82;;
47109;Laerm;32856;51.422;6.794;2024-02-04T11:15:47;65.27;50.47;76.31;;
47109;Laerm;32856;51.422;6.794;2024-02-04T11:21:11;68.71;51.55;81.71;;
47109;Laerm;32856;51.422;6.794;2024-02-04T11:23:46;65.57;50.56;78.83;;
47109;Laerm;32856;51.422;6.794;2024-02-04T11:26:16;68.37;51.43;81.48;;
47109;Laerm;32856;51.422;6.794;2024-02-04T11:28:43;68.72;53.05;78.95;;
47109;Laerm;32856;51.422;6.794;2024-02-04T11:31:14;67.20;50.94;79.90;;
47109;Laerm;32856;51.422;6.794;2024-02-04T11:33:42;66.96;51.29;78.92;;
47109;Laerm;32856;51.422;6.794;2024-02-04T11:36:13;66.37;51.30;77.77;;
47109;Laerm;32856;51.422;6.794;2024-02-04T11:38:41;68.67;51.79;81.33;;
47109;Laerm;32856;51.422;6.794;2024-02-04T11:41:08;65.39;53.14;77.55;;
47109;Laerm;32856;51.422;6.794;2024-02-04T11:43:36;64.05;50.71;77.43;;
47109;Laerm;32856;51.422;6.794;2024-02-04T11:46:04;67.72;52.11;80.10;;
47109;Laerm;32856;51.422;6.794;2024-02-04T11:48:32;66.97;51.50;79.32;;
47109;Laerm;32856;51.422;6.794;2024-02-04T11:51:01;67.95;51.06;82.62;;
47109;Laerm;32856;51.422;6.794;2024-02-04T11:53:30;65.91;50.56;79.32;;
47109;Laerm;32856;51.422;6.794;2024-02-04T11:55:58;67.91;51.97;77.88;;
47109;Laerm;32856;51.422;6.794;2024-02-04T11:58:27;66.29;50.58;81.33;;
47109;Laerm;32856;51.422;6.794;2024-02-04T12:00:56;66.05;52.04;79.15;;
47109;Laerm;32856;51.422;6.794;2024-02-04T12:03:30;69.00;51.67;84.87;;
47109;Laerm;32856;51.422;6.794;2024-02-04T12:05:58;67.10;52.86;77.39;;
47109;Laerm;32856;51.422;6.794;2024-02-04T12:08:26;66.97;50.98;80.33;;
47109;Laerm;32856;51.422;6.794;2024-02-04T12:10:55;64.93;52.10;77.64;;
47109;Laerm;32856;51.422;6.794;2024-02-04T12:13:23;66.29;50.63;78.40;;
47109;Laerm;32856;51.422;6.794;2024-02-04T12:15:51;66.51;50.87;81.72;;
47109;Laerm;32856;51.422;6.794;2024-02-04T12:18:18;66.07;51.65;77.13;;
47109;Laerm;32856;51.422;6.794;2024-02-04T12:20:47;66.23;53.58;78.51;;
47109;Laerm;32856;51.422;6.794;2024-02-04T12:23:16;67.35;53.25;78.15;;
47109;Laerm;32856;51.422;6.794;2024-02-04T12:25:44;66.58;52.76;76.69;;
47109;Laerm;32856;51.422;6.794;2024-02-04T12:28:12;66.66;50.74;78.16;;
47109;Laerm;32856;51.422;6.794;2024-02-04T12:30:41;66.91;51.17;78.90;;
47109;Laerm;32856;51.422;6.794;2024-02-04T12:33:08;62.78;50.33;75.19;;
47109;Laerm;32856;51.422;6.794;2024-02-04T12:35:36;66.52;52.08;78.38;;
47109;Laerm;32856;51.422;6.794;2024-02-04T12:38:04;64.99;51.86;77.88;;
47109;Laerm;32856;51.422;6.794;2024-02-04T12:40:33;63.63;51.21;75.60;;
47109;Laerm;32856;51.422;6.794;2024-02-04T12:43:01;66.78;51.21;78.00;;
47109;Laerm;32856;51.422;6.794;2024-02-04T12:45:32;65.14;50.81;77.13;;
47109;Laerm;32856;51.422;6.794;2024-02-04T12:48:00;61.44;49.77;74.18;;
47109;Laerm;32856;51.422;6.794;2024-02-04T12:50:28;64.05;50.62;77.34;;
47109;Laerm;32856;51.422;6.794;2024-02-04T12:53:03;66.29;51.52;77.87;;
47109;Laerm;32856;51.422;6.794;2024-02-04T12:55:32;67.67;51.46;81.79;;
47109;Laerm;32856;51.422;6.794;2024-02-04T12:58:03;64.37;50.46;75.87;;
47109;Laerm;32856;51.422;6.794;2024-02-04T13:00:32;65.64;51.72;77.59;;
47109;Laerm;32856;51.422;6.794;2024-02-04T13:03:00;65.74;51.51;75.98;;
47109;Laerm;32856;51.422;6.794;2024-02-04T13:05:28;65.10;51.84;78.12;;
47109;Laerm;32856;51.422;6.794;2024-02-04T13:07:58;66.02;50.99;81.72;;
47109;Laerm;32856;51.422;6.794;2024-02-04T13:10:28;65.02;49.11;76.03;;
47109;Laerm;32856;51.422;6.794;2024-02-04T13:13:00;64.61;49.27;75.08;;
47109;Laerm;32856;51.422;6.794;2024-02-04T13:15:28;64.29;50.13;75.62;;
47109;Laerm;32856;51.422;6.794;2024-02-04T13:17:57;64.81;50.06;78.22;;
47109;Laerm;32856;51.422;6.794;2024-02-04T13:20:25;66.54;50.36;76.87;;
47109;Laerm;32856;51.422;6.794;2024-02-04T13:22:56;63.79;50.36;75.28;;
47109;Laerm;32856;51.422;6.794;2024-02-04T13:25:23;68.02;51.38;83.56;;
47109;Laerm;32856;51.422;6.794;2024-02-04T13:27:51;67.42;52.41;78.39;;
47109;Laerm;32856;51.422;6.794;2024-02-04T13:30:18;67.66;51.92;76.52;;
47109;Laerm;32856;51.422;6.794;2024-02-04T13:32:46;66.37;49.63;78.05;;
47109;Laerm;32856;51.422;6.794;2024-02-04T13:35:14;66.60;50.67;80.61;;
47109;Laerm;32856;51.422;6.794;2024-02-04T13:37:45;67.70;50.11;80.05;;
47109;Laerm;32856;51.422;6.794;2024-02-04T13:40:14;66.59;50.08;76.47;;
47109;Laerm;32856;51.422;6.794;2024-02-04T13:42:41;63.38;48.26;74.40;;
47109;Laerm;32856;51.422;6.794;2024-02-04T13:45:09;66.85;50.25;77.87;;
47109;Laerm;32856;51.422;6.794;2024-02-04T13:47:36;66.19;50.20;75.78;;
47109;Laerm;32856;51.422;6.794;2024-02-04T13:50:04;67.94;52.54;78.91;;
47109;Laerm;32856;51.422;6.794;2024-02-04T13:52:35;65.75;49.53;76.90;;
47109;Laerm;32856;51.422;6.794;2024-02-04T13:55:02;65.94;49.10;77.37;;